sensor_id;sensor_type;location;lat;lon;timestamp;P1;durP1;ratioP1;P2;durP2;ratioP2
6356;SDS011;3211;53.452;-2.264;2023-07-30T00:01:59;11.23;;;4.50;;
6356;SDS011;3211;53.452;-2.264;2023-07-30T00:04:41;11.90;;;3.87;;
6356;SDS011;3211;53.452;-2.264;2023-07-30T00:07:23;13.30;;;3.20;;
6356;SDS011;3211;53.452;-2.264;2023-07-30T00:10:05;15.53;;;3.60;;
6356;SDS011;3211;53.452;-2.264;2023-07-30T00:12:48;7.23;;;2.40;;
6356;SDS011;3211;53.452;-2.264;2023-07-30T00:15:31;17.57;;;3.50;;
6356;SDS011;3211;53.452;-2.264;2023-07-30T00:18:14;14.53;;;3.43;;
6356;SDS011;3211;53.452;-2.264;2023-07-30T00:20:56;15.23;;;3.63;;
6356;SDS011;3211;53.452;-2.264;2023-07-30T00:23:38;9.60;;;2.97;;
6356;SDS011;3211;53.452;-2.264;2023-07-30T00:26:20;15.93;;;3.20;;
6356;SDS011;3211;53.452;-2.264;2023-07-30T00:29:04;10.07;;;3.27;;
6356;SDS011;3211;53.452;-2.264;2023-07-30T00:31:47;13.30;;;3.50;;
6356;SDS011;3211;53.452;-2.264;2023-07-30T00:34:29;17.37;;;3.73;;
6356;SDS011;3211;53.452;-2.264;2023-07-30T00:37:12;12.77;;;3.10;;
6356;SDS011;3211;53.452;-2.264;2023-07-30T00:39:54;9.80;;;3.20;;
6356;SDS011;3211;53.452;-2.264;2023-07-30T00:42:36;18.43;;;3.40;;
6356;SDS011;3211;53.452;-2.264;2023-07-30T00:45:18;10.10;;;3.27;;
6356;SDS011;3211;53.452;-2.264;2023-07-30T00:48:02;16.90;;;3.90;;
6356;SDS011;3211;53.452;-2.264;2023-07-30T00:50:44;8.40;;;3.00;;
6356;SDS011;3211;53.452;-2.264;2023-07-30T00:53:26;14.80;;;3.53;;
6356;SDS011;3211;53.452;-2.264;2023-07-30T00:56:09;18.57;;;3.33;;
6356;SDS011;3211;53.452;-2.264;2023-07-30T00:58:51;9.53;;;2.90;;
6356;SDS011;3211;53.452;-2.264;2023-07-30T01:01:34;12.50;;;3.03;;
6356;SDS011;3211;53.452;-2.264;2023-07-30T01:04:20;13.00;;;3.47;;
6356;SDS011;3211;53.452;-2.264;2023-07-30T01:07:02;17.07;;;3.70;;
6356;SDS011;3211;53.452;-2.264;2023-07-30T01:09:45;14.20;;;3.33;;
6356;SDS011;3211;53.452;-2.264;2023-07-30T01:12:27;10.60;;;2.70;;
6356;SDS011;3211;53.452;-2.264;2023-07-30T01:15:10;9.27;;;3.13;;
6356;SDS011;3211;53.452;-2.264;2023-07-30T01:17:53;10.53;;;3.00;;
6356;SDS011;3211;53.452;-2.264;2023-07-30T01:20:37;9.10;;;3.30;;
6356;SDS011;3211;53.452;-2.264;2023-07-30T01:23:20;12.40;;;4.30;;
6356;SDS011;3211;53.452;-2.264;2023-07-30T01:26:03;9.37;;;3.40;;
6356;SDS011;3211;53.452;-2.264;2023-07-30T01:28:51;15.70;;;3.67;;
6356;SDS011;3211;53.452;-2.264;2023-07-30T01:31:37;9.93;;;3.20;;
6356;SDS011;3211;53.452;-2.264;2023-07-30T01:34:22;10.80;;;3.30;;
6356;SDS011;3211;53.452;-2.264;2023-07-30T01:37:06;12.83;;;3.30;;
6356;SDS011;3211;53.452;-2.264;2023-07-30T01:39:54;8.30;;;2.67;;
6356;SDS011;3211;53.452;-2.264;2023-07-30T01:42:37;14.80;;;3.47;;
6356;SDS011;3211;53.452;-2.264;2023-07-30T01:45:19;6.57;;;2.77;;
6356;SDS011;3211;53.452;-2.264;2023-07-30T01:48:01;8.63;;;2.40;;
6356;SDS011;3211;53.452;-2.264;2023-07-30T01:50:43;8.07;;;3.30;;
6356;SDS011;3211;53.452;-2.264;2023-07-30T01:53:27;13.37;;;3.10;;
6356;SDS011;3211;53.452;-2.264;2023-07-30T01:56:10;9.57;;;2.67;;
6356;SDS011;3211;53.452;-2.264;2023-07-30T01:58:52;7.57;;;3.57;;
6356;SDS011;3211;53.452;-2.264;2023-07-30T02:01:34;12.17;;;3.03;;
6356;SDS011;3211;53.452;-2.264;2023-07-30T02:04:16;10.33;;;3.17;;
6356;SDS011;3211;53.452;-2.264;2023-07-30T02:06:58;10.00;;;2.30;;
6356;SDS011;3211;53.452;-2.264;2023-07-30T02:09:40;7.27;;;2.63;;
6356;SDS011;3211;53.452;-2.264;2023-07-30T02:12:23;10.23;;;2.80;;
6356;SDS011;3211;53.452;-2.264;2023-07-30T02:15:06;9.33;;;2.80;;
6356;SDS011;3211;53.452;-2.264;2023-07-30T02:17:48;9.50;;;3.10;;
6356;SDS011;3211;53.452;-2.264;2023-07-30T02:20:30;8.40;;;2.30;;
6356;SDS011;3211;53.452;-2.264;2023-07-30T02:23:13;7.53;;;2.80;;
6356;SDS011;3211;53.452;-2.264;2023-07-30T02:25:56;10.30;;;3.13;;
6356;SDS011;3211;53.452;-2.264;2023-07-30T02:28:40;5.00;;;2.13;;
6356;SDS011;3211;53.452;-2.264;2023-07-30T02:31:22;10.03;;;2.30;;
6356;SDS011;3211;53.452;-2.264;2023-07-30T02:34:04;11.40;;;2.67;;
6356;SDS011;3211;53.452;-2.264;2023-07-30T02:36:47;9.60;;;2.70;;
6356;SDS011;3211;53.452;-2.264;2023-07-30T02:39:30;5.57;;;2.20;;
6356;SDS011;3211;53.452;-2.264;2023-07-30T02:42:12;10.60;;;2.27;;
6356;SDS011;3211;53.452;-2.264;2023-07-30T02:44:55;6.60;;;2.13;;
6356;SDS011;3211;53.452;-2.264;2023-07-30T02:47:37;4.93;;;1.90;;
6356;SDS011;3211;53.452;-2.264;2023-07-30T02:50:19;7.27;;;2.10;;
6356;SDS011;3211;53.452;-2.264;2023-07-30T02:53:01;4.20;;;1.63;;
6356;SDS011;3211;53.452;-2.264;2023-07-30T02:55:43;5.10;;;1.83;;
6356;SDS011;3211;53.452;-2.264;2023-07-30T02:58:25;9.13;;;2.30;;
6356;SDS011;3211;53.452;-2.264;2023-07-30T03:01:08;6.20;;;2.00;;
6356;SDS011;3211;53.452;-2.264;2023-07-30T03:03:50;5.93;;;2.07;;
6356;SDS011;3211;53.452;-2.264;2023-07-30T03:06:32;10.10;;;2.20;;
6356;SDS011;3211;53.452;-2.264;2023-07-30T03:09:14;5.67;;;1.90;;
6356;SDS011;3211;53.452;-2.264;2023-07-30T03:11:56;10.17;;;2.40;;
6356;SDS011;3211;53.452;-2.264;2023-07-30T03:14:38;3.70;;;1.63;;
6356;SDS011;3211;53.452;-2.264;2023-07-30T03:17:21;6.20;;;2.20;;
6356;SDS011;3211;53.452;-2.264;2023-07-30T03:20:03;5.93;;;1.83;;
6356;SDS011;3211;53.452;-2.264;2023-07-30T03:22:46;2.83;;;1.60;;
6356;SDS011;3211;53.452;-2.264;2023-07-30T03:25:28;9.07;;;2.20;;
6356;SDS011;3211;53.452;-2.264;2023-07-30T03:28:10;8.00;;;1.83;;
6356;SDS011;3211;53.452;-2.264;2023-07-30T03:30:52;7.47;;;1.73;;
6356;SDS011;3211;53.452;-2.264;2023-07-30T03:33:36;4.17;;;1.50;;
6356;SDS011;3211;53.452;-2.264;2023-07-30T03:36:19;5.97;;;1.80;;
6356;SDS011;3211;53.452;-2.264;2023-07-30T03:39:01;10.23;;;1.73;;
6356;SDS011;3211;53.452;-2.264;2023-07-30T03:41:43;4.80;;;1.90;;
6356;SDS011;3211;53.452;-2.264;2023-07-30T03:44:25;5.77;;;1.70;;
6356;SDS011;3211;53.452;-2.264;2023-07-30T03:47:07;5.53;;;1.73;;
6356;SDS011;3211;53.452;-2.264;2023-07-30T03:49:50;4.70;;;1.90;;
6356;SDS011;3211;53.452;-2.264;2023-07-30T03:52:32;5.57;;;2.10;;
6356;SDS011;3211;53.452;-2.264;2023-07-30T03:55:14;9.30;;;2.03;;
6356;SDS011;3211;53.452;-2.264;2023-07-30T03:57:56;5.70;;;1.67;;
6356;SDS011;3211;53.452;-2.264;2023-07-30T04:00:38;2.70;;;1.60;;
6356;SDS011;3211;53.452;-2.264;2023-07-30T04:03:20;4.77;;;1.70;;
6356;SDS011;3211;53.452;-2.264;2023-07-30T04:06:04;3.23;;;1.63;;
6356;SDS011;3211;53.452;-2.264;2023-07-30T04:08:45;5.10;;;1.60;;
6356;SDS011;3211;53.452;-2.264;2023-07-30T04:11:27;3.67;;;2.20;;
6356;SDS011;3211;53.452;-2.264;2023-07-30T04:14:09;6.93;;;1.73;;
6356;SDS011;3211;53.452;-2.264;2023-07-30T04:16:51;5.37;;;1.83;;
6356;SDS011;3211;53.452;-2.264;2023-07-30T04:19:33;9.17;;;1.73;;
6356;SDS011;3211;53.452;-2.264;2023-07-30T04:22:16;7.57;;;1.67;;
6356;SDS011;3211;53.452;-2.264;2023-07-30T04:24:58;6.43;;;1.53;;
6356;SDS011;3211;53.452;-2.264;2023-07-30T04:27:40;4.03;;;1.83;;
6356;SDS011;3211;53.452;-2.264;2023-07-30T04:30:23;4.97;;;1.53;;
6356;SDS011;3211;53.452;-2.264;2023-07-30T04:33:04;5.40;;;1.90;;
6356;SDS011;3211;53.452;-2.264;2023-07-30T04:35:46;6.33;;;1.80;;
6356;SDS011;3211;53.452;-2.264;2023-07-30T04:38:30;5.47;;;2.03;;
6356;SDS011;3211;53.452;-2.264;2023-07-30T04:41:12;3.93;;;1.77;;
6356;SDS011;3211;53.452;-2.264;2023-07-30T04:43:54;3.90;;;1.70;;
6356;SDS011;3211;53.452;-2.264;2023-07-30T04:46:36;3.50;;;1.50;;
6356;SDS011;3211;53.452;-2.264;2023-07-30T04:49:18;5.37;;;1.60;;
6356;SDS011;3211;53.452;-2.264;2023-07-30T04:52:00;4.33;;;1.40;;
6356;SDS011;3211;53.452;-2.264;2023-07-30T04:54:43;5.90;;;1.77;;
6356;SDS011;3211;53.452;-2.264;2023-07-30T04:57:25;4.07;;;1.60;;
6356;SDS011;3211;53.452;-2.264;2023-07-30T05:00:07;4.63;;;1.93;;
6356;SDS011;3211;53.452;-2.264;2023-07-30T05:02:49;5.57;;;1.90;;
6356;SDS011;3211;53.452;-2.264;2023-07-30T05:05:31;5.23;;;1.67;;
6356;SDS011;3211;53.452;-2.264;2023-07-30T05:08:13;3.27;;;1.50;;
6356;SDS011;3211;53.452;-2.264;2023-07-30T05:10:57;5.00;;;2.03;;
6356;SDS011;3211;53.452;-2.264;2023-07-30T05:13:39;4.50;;;1.57;;
6356;SDS011;3211;53.452;-2.264;2023-07-30T05:16:21;3.73;;;1.63;;
6356;SDS011;3211;53.452;-2.264;2023-07-30T05:19:02;4.37;;;2.07;;
6356;SDS011;3211;53.452;-2.264;2023-07-30T05:21:44;5.50;;;1.97;;
6356;SDS011;3211;53.452;-2.264;2023-07-30T05:24:26;7.93;;;1.80;;
6356;SDS011;3211;53.452;-2.264;2023-07-30T05:27:10;3.73;;;2.17;;
6356;SDS011;3211;53.452;-2.264;2023-07-30T05:29:52;5.43;;;2.07;;
6356;SDS011;3211;53.452;-2.264;2023-07-30T05:32:34;9.77;;;1.83;;
6356;SDS011;3211;53.452;-2.264;2023-07-30T05:35:15;11.37;;;2.00;;
6356;SDS011;3211;53.452;-2.264;2023-07-30T05:37:59;5.50;;;2.17;;
6356;SDS011;3211;53.452;-2.264;2023-07-30T05:40:41;5.43;;;2.10;;
6356;SDS011;3211;53.452;-2.264;2023-07-30T05:43:24;4.50;;;1.70;;
6356;SDS011;3211;53.452;-2.264;2023-07-30T05:46:07;6.20;;;2.10;;
6356;SDS011;3211;53.452;-2.264;2023-07-30T05:48:49;6.90;;;2.20;;
6356;SDS011;3211;53.452;-2.264;2023-07-30T05:51:31;7.20;;;1.87;;
6356;SDS011;3211;53.452;-2.264;2023-07-30T05:54:13;6.30;;;2.13;;
6356;SDS011;3211;53.452;-2.264;2023-07-30T05:56:55;5.13;;;1.70;;
6356;SDS011;3211;53.452;-2.264;2023-07-30T05:59:38;7.53;;;2.23;;
6356;SDS011;3211;53.452;-2.264;2023-07-30T06:02:20;6.50;;;1.80;;
6356;SDS011;3211;53.452;-2.264;2023-07-30T06:05:02;10.30;;;2.03;;
6356;SDS011;3211;53.452;-2.264;2023-07-30T06:07:45;6.00;;;2.37;;
6356;SDS011;3211;53.452;-2.264;2023-07-30T06:10:26;7.47;;;2.13;;
6356;SDS011;3211;53.452;-2.264;2023-07-30T06:13:09;10.43;;;2.60;;
6356;SDS011;3211;53.452;-2.264;2023-07-30T06:15:52;4.43;;;1.87;;
6356;SDS011;3211;53.452;-2.264;2023-07-30T06:18:35;9.83;;;2.40;;
6356;SDS011;3211;53.452;-2.264;2023-07-30T06:21:17;7.40;;;2.30;;
6356;SDS011;3211;53.452;-2.264;2023-07-30T06:23:59;7.83;;;2.50;;
6356;SDS011;3211;53.452;-2.264;2023-07-30T06:26:41;11.33;;;2.53;;
6356;SDS011;3211;53.452;-2.264;2023-07-30T06:29:23;10.50;;;2.50;;
6356;SDS011;3211;53.452;-2.264;2023-07-30T06:32:07;6.10;;;1.90;;
6356;SDS011;3211;53.452;-2.264;2023-07-30T06:34:49;7.17;;;2.23;;
6356;SDS011;3211;53.452;-2.264;2023-07-30T06:37:31;6.30;;;2.50;;
6356;SDS011;3211;53.452;-2.264;2023-07-30T06:40:13;6.60;;;2.60;;
6356;SDS011;3211;53.452;-2.264;2023-07-30T06:42:55;5.47;;;2.30;;
6356;SDS011;3211;53.452;-2.264;2023-07-30T06:45:37;10.30;;;2.53;;
6356;SDS011;3211;53.452;-2.264;2023-07-30T06:48:20;7.63;;;2.70;;
6356;SDS011;3211;53.452;-2.264;2023-07-30T06:51:05;6.93;;;3.03;;
6356;SDS011;3211;53.452;-2.264;2023-07-30T06:53:47;7.10;;;2.73;;
6356;SDS011;3211;53.452;-2.264;2023-07-30T06:56:29;10.47;;;2.90;;
6356;SDS011;3211;53.452;-2.264;2023-07-30T06:59:11;4.53;;;2.07;;
6356;SDS011;3211;53.452;-2.264;2023-07-30T07:01:53;7.43;;;2.00;;
6356;SDS011;3211;53.452;-2.264;2023-07-30T07:04:36;9.77;;;2.40;;
6356;SDS011;3211;53.452;-2.264;2023-07-30T07:07:18;9.73;;;2.80;;
6356;SDS011;3211;53.452;-2.264;2023-07-30T07:10:00;15.23;;;2.10;;
6356;SDS011;3211;53.452;-2.264;2023-07-30T07:12:42;11.53;;;2.53;;
6356;SDS011;3211;53.452;-2.264;2023-07-30T07:15:24;8.10;;;2.37;;
6356;SDS011;3211;53.452;-2.264;2023-07-30T07:18:06;7.30;;;2.33;;
6356;SDS011;3211;53.452;-2.264;2023-07-30T07:20:50;9.20;;;2.30;;
6356;SDS011;3211;53.452;-2.264;2023-07-30T07:23:32;7.93;;;2.33;;
6356;SDS011;3211;53.452;-2.264;2023-07-30T07:26:14;8.23;;;1.73;;
6356;SDS011;3211;53.452;-2.264;2023-07-30T07:28:56;5.80;;;1.90;;
6356;SDS011;3211;53.452;-2.264;2023-07-30T07:31:38;5.40;;;3.00;;
6356;SDS011;3211;53.452;-2.264;2023-07-30T07:34:20;7.13;;;2.03;;
6356;SDS011;3211;53.452;-2.264;2023-07-30T07:37:04;5.43;;;1.80;;
6356;SDS011;3211;53.452;-2.264;2023-07-30T07:39:46;4.20;;;1.77;;
6356;SDS011;3211;53.452;-2.264;2023-07-30T07:42:28;6.70;;;1.83;;
6356;SDS011;3211;53.452;-2.264;2023-07-30T07:45:10;7.30;;;1.97;;
6356;SDS011;3211;53.452;-2.264;2023-07-30T07:47:52;6.47;;;1.87;;
6356;SDS011;3211;53.452;-2.264;2023-07-30T07:50:34;5.23;;;1.77;;
6356;SDS011;3211;53.452;-2.264;2023-07-30T07:53:18;3.17;;;1.60;;
6356;SDS011;3211;53.452;-2.264;2023-07-30T07:56:00;4.60;;;1.73;;
6356;SDS011;3211;53.452;-2.264;2023-07-30T07:58:45;7.50;;;3.23;;
6356;SDS011;3211;53.452;-2.264;2023-07-30T08:01:27;10.23;;;2.20;;
6356;SDS011;3211;53.452;-2.264;2023-07-30T08:04:09;5.60;;;1.70;;
6356;SDS011;3211;53.452;-2.264;2023-07-30T08:06:51;3.60;;;1.80;;
6356;SDS011;3211;53.452;-2.264;2023-07-30T08:09:34;6.23;;;2.27;;
6356;SDS011;3211;53.452;-2.264;2023-07-30T08:12:16;5.90;;;1.97;;
6356;SDS011;3211;53.452;-2.264;2023-07-30T08:15:00;4.17;;;1.70;;
6356;SDS011;3211;53.452;-2.264;2023-07-30T08:17:42;5.40;;;1.90;;
6356;SDS011;3211;53.452;-2.264;2023-07-30T08:20:24;5.80;;;1.80;;
6356;SDS011;3211;53.452;-2.264;2023-07-30T08:23:05;6.30;;;1.73;;
6356;SDS011;3211;53.452;-2.264;2023-07-30T08:25:49;2.80;;;1.60;;
6356;SDS011;3211;53.452;-2.264;2023-07-30T08:28:31;3.70;;;1.77;;
6356;SDS011;3211;53.452;-2.264;2023-07-30T08:31:13;5.57;;;1.63;;
6356;SDS011;3211;53.452;-2.264;2023-07-30T08:33:55;9.53;;;2.13;;
6356;SDS011;3211;53.452;-2.264;2023-07-30T08:36:40;4.57;;;1.63;;
6356;SDS011;3211;53.452;-2.264;2023-07-30T08:39:26;5.50;;;2.07;;
6356;SDS011;3211;53.452;-2.264;2023-07-30T08:42:09;3.73;;;1.70;;
6356;SDS011;3211;53.452;-2.264;2023-07-30T08:44:52;6.40;;;2.00;;
6356;SDS011;3211;53.452;-2.264;2023-07-30T08:47:34;5.10;;;1.87;;
6356;SDS011;3211;53.452;-2.264;2023-07-30T08:50:16;5.10;;;1.90;;
6356;SDS011;3211;53.452;-2.264;2023-07-30T08:52:58;8.10;;;2.20;;
6356;SDS011;3211;53.452;-2.264;2023-07-30T08:55:41;3.73;;;1.90;;
6356;SDS011;3211;53.452;-2.264;2023-07-30T08:58:25;11.30;;;1.70;;
6356;SDS011;3211;53.452;-2.264;2023-07-30T09:01:09;7.17;;;1.60;;
6356;SDS011;3211;53.452;-2.264;2023-07-30T09:03:52;4.97;;;1.87;;
6356;SDS011;3211;53.452;-2.264;2023-07-30T09:06:35;2.30;;;1.40;;
6356;SDS011;3211;53.452;-2.264;2023-07-30T09:09:18;6.73;;;1.53;;
6356;SDS011;3211;53.452;-2.264;2023-07-30T09:12:01;5.40;;;1.70;;
6356;SDS011;3211;53.452;-2.264;2023-07-30T09:14:46;4.87;;;1.63;;
6356;SDS011;3211;53.452;-2.264;2023-07-30T09:17:32;3.23;;;1.30;;
6356;SDS011;3211;53.452;-2.264;2023-07-30T09:20:15;2.50;;;1.40;;
6356;SDS011;3211;53.452;-2.264;2023-07-30T09:22:58;5.33;;;2.10;;
6356;SDS011;3211;53.452;-2.264;2023-07-30T09:25:40;7.73;;;2.50;;
6356;SDS011;3211;53.452;-2.264;2023-07-30T09:28:22;3.43;;;1.40;;
6356;SDS011;3211;53.452;-2.264;2023-07-30T09:31:13;3.50;;;1.67;;
6356;SDS011;3211;53.452;-2.264;2023-07-30T09:33:55;1.83;;;1.30;;
6356;SDS011;3211;53.452;-2.264;2023-07-30T09:36:37;4.00;;;1.40;;
6356;SDS011;3211;53.452;-2.264;2023-07-30T09:39:20;7.90;;;1.77;;
6356;SDS011;3211;53.452;-2.264;2023-07-30T09:42:03;9.00;;;3.60;;
6356;SDS011;3211;53.452;-2.264;2023-07-30T09:44:47;3.40;;;1.40;;
6356;SDS011;3211;53.452;-2.264;2023-07-30T09:47:31;4.00;;;2.00;;
6356;SDS011;3211;53.452;-2.264;2023-07-30T09:50:15;2.67;;;1.30;;
6356;SDS011;3211;53.452;-2.264;2023-07-30T09:52:58;3.20;;;1.47;;
6356;SDS011;3211;53.452;-2.264;2023-07-30T09:55:42;1.57;;;1.20;;
6356;SDS011;3211;53.452;-2.264;2023-07-30T09:58:24;4.10;;;1.50;;
6356;SDS011;3211;53.452;-2.264;2023-07-30T10:01:06;5.23;;;1.40;;
6356;SDS011;3211;53.452;-2.264;2023-07-30T10:03:49;3.70;;;1.40;;
6356;SDS011;3211;53.452;-2.264;2023-07-30T10:06:31;5.70;;;1.47;;
6356;SDS011;3211;53.452;-2.264;2023-07-30T10:09:15;3.63;;;1.30;;
6356;SDS011;3211;53.452;-2.264;2023-07-30T10:12:00;3.73;;;1.40;;
6356;SDS011;3211;53.452;-2.264;2023-07-30T10:14:45;2.77;;;1.37;;
6356;SDS011;3211;53.452;-2.264;2023-07-30T10:17:28;2.30;;;1.40;;
6356;SDS011;3211;53.452;-2.264;2023-07-30T10:20:24;3.10;;;1.40;;
6356;SDS011;3211;53.452;-2.264;2023-07-30T10:23:07;4.60;;;1.30;;
6356;SDS011;3211;53.452;-2.264;2023-07-30T10:25:49;3.37;;;1.37;;
6356;SDS011;3211;53.452;-2.264;2023-07-30T10:28:32;1.97;;;1.40;;
6356;SDS011;3211;53.452;-2.264;2023-07-30T10:31:16;3.30;;;1.40;;
6356;SDS011;3211;53.452;-2.264;2023-07-30T10:33:58;3.03;;;1.20;;
6356;SDS011;3211;53.452;-2.264;2023-07-30T10:36:50;2.60;;;1.30;;
6356;SDS011;3211;53.452;-2.264;2023-07-30T10:39:32;4.20;;;1.30;;
6356;SDS011;3211;53.452;-2.264;2023-07-30T10:42:15;6.53;;;1.63;;
6356;SDS011;3211;53.452;-2.264;2023-07-30T10:44:58;3.10;;;1.70;;
6356;SDS011;3211;53.452;-2.264;2023-07-30T10:47:40;3.97;;;1.20;;
6356;SDS011;3211;53.452;-2.264;2023-07-30T10:50:23;4.90;;;1.40;;
6356;SDS011;3211;53.452;-2.264;2023-07-30T10:53:08;3.07;;;1.40;;
6356;SDS011;3211;53.452;-2.264;2023-07-30T10:55:50;3.37;;;1.40;;
6356;SDS011;3211;53.452;-2.264;2023-07-30T10:58:34;5.20;;;1.47;;
6356;SDS011;3211;53.452;-2.264;2023-07-30T11:01:17;1.40;;;1.30;;
6356;SDS011;3211;53.452;-2.264;2023-07-30T11:03:59;7.70;;;1.90;;
6356;SDS011;3211;53.452;-2.264;2023-07-30T11:06:44;2.93;;;1.80;;
6356;SDS011;3211;53.452;-2.264;2023-07-30T11:09:28;3.70;;;1.37;;
6356;SDS011;3211;53.452;-2.264;2023-07-30T11:12:10;3.70;;;1.30;;
6356;SDS011;3211;53.452;-2.264;2023-07-30T11:15:01;3.63;;;1.40;;
6356;SDS011;3211;53.452;-2.264;2023-07-30T11:17:43;3.27;;;1.17;;
6356;SDS011;3211;53.452;-2.264;2023-07-30T11:20:26;1.67;;;1.20;;
6356;SDS011;3211;53.452;-2.264;2023-07-30T11:23:18;7.20;;;1.60;;
6356;SDS011;3211;53.452;-2.264;2023-07-30T11:26:03;4.80;;;1.73;;
6356;SDS011;3211;53.452;-2.264;2023-07-30T11:28:46;4.70;;;1.40;;
6356;SDS011;3211;53.452;-2.264;2023-07-30T11:31:28;3.00;;;1.40;;
6356;SDS011;3211;53.452;-2.264;2023-07-30T11:34:10;6.00;;;1.30;;
6356;SDS011;3211;53.452;-2.264;2023-07-30T11:36:53;2.43;;;1.30;;
6356;SDS011;3211;53.452;-2.264;2023-07-30T11:39:35;3.03;;;1.20;;
6356;SDS011;3211;53.452;-2.264;2023-07-30T11:42:19;2.20;;;1.30;;
6356;SDS011;3211;53.452;-2.264;2023-07-30T11:45:16;1.53;;;1.00;;
6356;SDS011;3211;53.452;-2.264;2023-07-30T11:48:05;1.50;;;1.20;;
6356;SDS011;3211;53.452;-2.264;2023-07-30T11:50:49;2.20;;;1.10;;
6356;SDS011;3211;53.452;-2.264;2023-07-30T11:53:44;3.23;;;1.10;;
6356;SDS011;3211;53.452;-2.264;2023-07-30T11:56:28;3.53;;;1.43;;
6356;SDS011;3211;53.452;-2.264;2023-07-30T11:59:12;5.43;;;1.40;;
6356;SDS011;3211;53.452;-2.264;2023-07-30T12:01:55;1.47;;;1.13;;
6356;SDS011;3211;53.452;-2.264;2023-07-30T12:04:43;3.10;;;1.13;;
6356;SDS011;3211;53.452;-2.264;2023-07-30T12:07:25;3.67;;;1.37;;
6356;SDS011;3211;53.452;-2.264;2023-07-30T12:10:08;2.70;;;1.13;;
6356;SDS011;3211;53.452;-2.264;2023-07-30T12:12:51;1.30;;;1.20;;
6356;SDS011;3211;53.452;-2.264;2023-07-30T12:15:35;3.00;;;1.27;;
6356;SDS011;3211;53.452;-2.264;2023-07-30T12:18:17;2.00;;;1.73;;
6356;SDS011;3211;53.452;-2.264;2023-07-30T12:20:59;1.83;;;1.13;;
6356;SDS011;3211;53.452;-2.264;2023-07-30T12:23:41;3.67;;;1.30;;
6356;SDS011;3211;53.452;-2.264;2023-07-30T12:26:23;4.57;;;1.20;;
6356;SDS011;3211;53.452;-2.264;2023-07-30T12:29:05;3.10;;;1.40;;
6356;SDS011;3211;53.452;-2.264;2023-07-30T12:31:48;3.37;;;1.23;;
6356;SDS011;3211;53.452;-2.264;2023-07-30T12:34:33;1.77;;;1.00;;
6356;SDS011;3211;53.452;-2.264;2023-07-30T12:37:15;1.53;;;1.40;;
6356;SDS011;3211;53.452;-2.264;2023-07-30T12:39:57;2.50;;;1.43;;
6356;SDS011;3211;53.452;-2.264;2023-07-30T12:42:39;1.60;;;1.10;;
6356;SDS011;3211;53.452;-2.264;2023-07-30T12:45:20;6.23;;;1.27;;
6356;SDS011;3211;53.452;-2.264;2023-07-30T12:48:04;2.67;;;1.37;;
6356;SDS011;3211;53.452;-2.264;2023-07-30T12:50:48;2.57;;;1.17;;
6356;SDS011;3211;53.452;-2.264;2023-07-30T12:53:30;2.50;;;1.37;;
6356;SDS011;3211;53.452;-2.264;2023-07-30T12:56:11;4.10;;;1.30;;
6356;SDS011;3211;53.452;-2.264;2023-07-30T12:58:55;2.30;;;1.33;;
6356;SDS011;3211;53.452;-2.264;2023-07-30T13:01:37;5.50;;;1.50;;
6356;SDS011;3211;53.452;-2.264;2023-07-30T13:04:20;3.00;;;1.57;;
6356;SDS011;3211;53.452;-2.264;2023-07-30T13:07:02;4.40;;;1.53;;
6356;SDS011;3211;53.452;-2.264;2023-07-30T13:09:45;3.40;;;1.40;;
6356;SDS011;3211;53.452;-2.264;2023-07-30T13:12:27;2.57;;;1.50;;
6356;SDS011;3211;53.452;-2.264;2023-07-30T13:15:09;1.97;;;1.20;;
6356;SDS011;3211;53.452;-2.264;2023-07-30T13:17:51;3.83;;;1.47;;
6356;SDS011;3211;53.452;-2.264;2023-07-30T13:20:35;4.47;;;1.43;;
6356;SDS011;3211;53.452;-2.264;2023-07-30T13:23:16;1.77;;;1.23;;
6356;SDS011;3211;53.452;-2.264;2023-07-30T13:25:59;2.30;;;1.30;;
6356;SDS011;3211;53.452;-2.264;2023-07-30T13:28:43;4.17;;;1.30;;
6356;SDS011;3211;53.452;-2.264;2023-07-30T13:31:25;2.37;;;1.30;;
6356;SDS011;3211;53.452;-2.264;2023-07-30T13:34:07;5.37;;;1.60;;
6356;SDS011;3211;53.452;-2.264;2023-07-30T13:36:50;3.43;;;1.40;;
6356;SDS011;3211;53.452;-2.264;2023-07-30T13:39:32;2.63;;;1.30;;
6356;SDS011;3211;53.452;-2.264;2023-07-30T13:42:14;2.93;;;1.27;;
6356;SDS011;3211;53.452;-2.264;2023-07-30T13:44:56;4.50;;;1.20;;
6356;SDS011;3211;53.452;-2.264;2023-07-30T13:47:38;3.17;;;1.37;;
6356;SDS011;3211;53.452;-2.264;2023-07-30T13:50:22;3.93;;;1.40;;
6356;SDS011;3211;53.452;-2.264;2023-07-30T13:53:05;2.07;;;1.27;;
6356;SDS011;3211;53.452;-2.264;2023-07-30T13:55:47;3.60;;;1.30;;
6356;SDS011;3211;53.452;-2.264;2023-07-30T13:58:29;2.97;;;1.30;;
6356;SDS011;3211;53.452;-2.264;2023-07-30T14:01:10;1.67;;;1.20;;
6356;SDS011;3211;53.452;-2.264;2023-07-30T14:03:53;1.63;;;1.20;;
6356;SDS011;3211;53.452;-2.264;2023-07-30T14:06:35;1.93;;;1.20;;
6356;SDS011;3211;53.452;-2.264;2023-07-30T14:09:19;2.33;;;1.20;;
6356;SDS011;3211;53.452;-2.264;2023-07-30T14:12:01;2.47;;;1.30;;
6356;SDS011;3211;53.452;-2.264;2023-07-30T14:14:44;3.47;;;1.40;;
6356;SDS011;3211;53.452;-2.264;2023-07-30T14:17:25;2.23;;;1.20;;
6356;SDS011;3211;53.452;-2.264;2023-07-30T14:20:08;2.23;;;1.30;;
6356;SDS011;3211;53.452;-2.264;2023-07-30T14:22:50;2.97;;;1.57;;
6356;SDS011;3211;53.452;-2.264;2023-07-30T14:25:35;2.53;;;1.37;;
6356;SDS011;3211;53.452;-2.264;2023-07-30T14:28:17;2.60;;;1.30;;
6356;SDS011;3211;53.452;-2.264;2023-07-30T14:30:59;1.57;;;1.23;;
6356;SDS011;3211;53.452;-2.264;2023-07-30T14:33:41;4.50;;;1.30;;
6356;SDS011;3211;53.452;-2.264;2023-07-30T14:36:23;3.90;;;2.10;;
6356;SDS011;3211;53.452;-2.264;2023-07-30T14:39:05;3.00;;;1.40;;
6356;SDS011;3211;53.452;-2.264;2023-07-30T14:41:48;4.00;;;1.40;;
6356;SDS011;3211;53.452;-2.264;2023-07-30T14:44:30;3.00;;;2.00;;
6356;SDS011;3211;53.452;-2.264;2023-07-30T14:47:12;2.60;;;1.33;;
6356;SDS011;3211;53.452;-2.264;2023-07-30T14:49:54;2.70;;;1.33;;
6356;SDS011;3211;53.452;-2.264;2023-07-30T14:52:36;1.87;;;1.40;;
6356;SDS011;3211;53.452;-2.264;2023-07-30T14:55:18;5.33;;;1.93;;
6356;SDS011;3211;53.452;-2.264;2023-07-30T14:58:01;7.73;;;2.60;;
6356;SDS011;3211;53.452;-2.264;2023-07-30T15:00:43;4.63;;;2.30;;
6356;SDS011;3211;53.452;-2.264;2023-07-30T15:03:25;3.90;;;2.70;;
6356;SDS011;3211;53.452;-2.264;2023-07-30T15:06:07;4.37;;;2.50;;
6356;SDS011;3211;53.452;-2.264;2023-07-30T15:08:49;4.87;;;2.60;;
6356;SDS011;3211;53.452;-2.264;2023-07-30T15:11:31;3.23;;;2.37;;
6356;SDS011;3211;53.452;-2.264;2023-07-30T15:14:15;3.97;;;1.67;;
6356;SDS011;3211;53.452;-2.264;2023-07-30T15:16:57;3.67;;;2.00;;
6356;SDS011;3211;53.452;-2.264;2023-07-30T15:19:39;4.90;;;1.80;;
6356;SDS011;3211;53.452;-2.264;2023-07-30T15:22:21;5.03;;;1.93;;
6356;SDS011;3211;53.452;-2.264;2023-07-30T15:25:03;5.90;;;2.07;;
6356;SDS011;3211;53.452;-2.264;2023-07-30T15:27:46;2.67;;;1.40;;
6356;SDS011;3211;53.452;-2.264;2023-07-30T15:30:29;4.47;;;1.67;;
6356;SDS011;3211;53.452;-2.264;2023-07-30T15:33:11;2.63;;;1.50;;
6356;SDS011;3211;53.452;-2.264;2023-07-30T15:35:53;3.83;;;1.73;;
6356;SDS011;3211;53.452;-2.264;2023-07-30T15:38:35;6.17;;;2.83;;
6356;SDS011;3211;53.452;-2.264;2023-07-30T15:41:17;2.90;;;1.70;;
6356;SDS011;3211;53.452;-2.264;2023-07-30T15:43:59;2.80;;;1.80;;
6356;SDS011;3211;53.452;-2.264;2023-07-30T15:46:45;4.40;;;2.77;;
6356;SDS011;3211;53.452;-2.264;2023-07-30T15:49:27;3.50;;;1.93;;
6356;SDS011;3211;53.452;-2.264;2023-07-30T15:52:09;3.00;;;1.53;;
6356;SDS011;3211;53.452;-2.264;2023-07-30T15:54:51;2.40;;;2.03;;
6356;SDS011;3211;53.452;-2.264;2023-07-30T15:57:33;4.20;;;1.97;;
6356;SDS011;3211;53.452;-2.264;2023-07-30T16:00:15;2.90;;;2.20;;
6356;SDS011;3211;53.452;-2.264;2023-07-30T16:03:00;2.00;;;1.50;;
6356;SDS011;3211;53.452;-2.264;2023-07-30T16:05:46;2.73;;;1.70;;
6356;SDS011;3211;53.452;-2.264;2023-07-30T16:08:28;3.73;;;2.10;;
6356;SDS011;3211;53.452;-2.264;2023-07-30T16:11:10;2.87;;;2.10;;
6356;SDS011;3211;53.452;-2.264;2023-07-30T16:13:53;5.13;;;1.80;;
6356;SDS011;3211;53.452;-2.264;2023-07-30T16:16:35;2.87;;;1.87;;
6356;SDS011;3211;53.452;-2.264;2023-07-30T16:19:21;4.73;;;2.20;;
6356;SDS011;3211;53.452;-2.264;2023-07-30T16:22:03;2.80;;;2.20;;
6356;SDS011;3211;53.452;-2.264;2023-07-30T16:24:45;2.90;;;2.30;;
6356;SDS011;3211;53.452;-2.264;2023-07-30T16:27:28;3.13;;;1.93;;
6356;SDS011;3211;53.452;-2.264;2023-07-30T16:30:10;3.20;;;2.07;;
6356;SDS011;3211;53.452;-2.264;2023-07-30T16:32:52;2.50;;;2.10;;
6356;SDS011;3211;53.452;-2.264;2023-07-30T16:35:35;3.80;;;2.50;;